createdAt,value
2019-05-28T00:00:16.483Z,8.00
2019-05-28T00:02:45.930Z,8.50
2019-05-28T00:05:16.383Z,10.50
2019-05-28T00:07:45.669Z,8.50
2019-05-28T00:10:15.346Z,6.15
2019-05-28T00:12:44.851Z,4.40
2019-05-28T00:15:15.444Z,4.42
2019-05-28T00:17:44.751Z,3.45
2019-05-28T00:20:14.482Z,3.30
2019-05-28T00:22:43.777Z,4.08
2019-05-28T00:25:13.256Z,3.50
2019-05-28T00:27:42.632Z,4.03
2019-05-28T00:30:19.639Z,4.03
2019-05-28T00:32:43.203Z,4.15
2019-05-28T00:35:13.855Z,4.83
2019-05-28T00:37:43.136Z,4.80
2019-05-28T00:40:12.886Z,5.17
2019-05-28T00:42:42.377Z,5.58
2019-05-28T00:45:12.163Z,6.97
2019-05-28T00:47:41.479Z,6.22
2019-05-28T00:50:11.412Z,6.20
2019-05-28T00:52:41.366Z,7.10
2019-05-28T00:55:12.669Z,7.05
2019-05-28T00:57:44.732Z,7.58
2019-05-28T01:00:14.553Z,9.00
2019-05-28T01:02:44.040Z,7.60
2019-05-28T01:05:13.716Z,8.85
2019-05-28T01:07:43.014Z,9.18
2019-05-28T01:10:12.461Z,10.53
2019-05-28T01:12:41.784Z,12.85
2019-05-28T01:15:11.256Z,12.37
2019-05-28T01:17:40.727Z,15.30
2019-05-28T01:20:10.177Z,16.55
2019-05-28T01:22:39.665Z,17.10
2019-05-28T01:25:09.580Z,17.87
2019-05-28T01:27:39.117Z,17.73
2019-05-28T01:30:08.578Z,16.50
2019-05-28T01:32:37.903Z,16.82
2019-05-28T01:35:07.725Z,17.20
2019-05-28T01:37:38.058Z,18.70
2019-05-28T01:40:07.758Z,19.75
2019-05-28T01:42:37.153Z,19.10
2019-05-28T01:45:07.461Z,18.62
2019-05-28T01:47:36.944Z,19.02
2019-05-28T01:50:10.090Z,19.25
2019-05-28T01:52:39.550Z,18.55
2019-05-28T01:55:09.474Z,19.50
2019-05-28T01:57:38.795Z,18.85
2019-05-28T02:00:09.024Z,17.90
2019-05-28T02:02:40.598Z,18.40
2019-05-28T02:05:10.449Z,18.52
2019-05-28T02:07:39.752Z,18.65
2019-05-28T02:10:09.597Z,18.60
2019-05-28T02:12:39.922Z,19.23
2019-05-28T02:15:10.348Z,19.25
2019-05-28T02:17:39.672Z,18.00
2019-05-28T02:20:10.306Z,18.98
2019-05-28T02:22:39.701Z,20.25
2019-05-28T02:25:09.656Z,21.12
2019-05-28T02:27:39.021Z,19.32
2019-05-28T02:30:10.337Z,19.42
2019-05-28T02:32:39.694Z,21.20
2019-05-28T02:35:09.923Z,19.50
2019-05-28T02:37:39.234Z,19.37
2019-05-28T02:40:08.914Z,19.92
2019-05-28T02:42:38.283Z,19.67
2019-05-28T02:45:11.433Z,19.70
2019-05-28T02:47:40.743Z,19.17
2019-05-28T02:50:10.698Z,17.85
2019-05-28T02:52:40.277Z,17.92
2019-05-28T02:55:10.335Z,16.05
2019-05-28T02:57:41.411Z,16.97
2019-05-28T03:00:15.553Z,16.55
2019-05-28T03:02:48.165Z,17.20
2019-05-28T03:05:18.029Z,16.42
2019-05-28T03:07:49.253Z,16.23
2019-05-28T03:10:24.474Z,16.50
2019-05-28T03:12:53.791Z,16.05
2019-05-28T03:15:23.099Z,15.72
2019-05-28T03:17:52.485Z,16.10
2019-05-28T03:20:21.974Z,15.13
2019-05-28T03:22:52.172Z,16.42
2019-05-28T03:25:22.811Z,16.35
2019-05-28T03:27:52.086Z,15.53
2019-05-28T03:30:21.542Z,15.38
2019-05-28T03:32:50.857Z,15.85
2019-05-28T03:35:20.187Z,15.88
2019-05-28T03:37:49.634Z,16.40
2019-05-28T03:40:29.750Z,17.10
2019-05-28T03:42:59.076Z,17.40
2019-05-28T03:45:28.364Z,17.73
2019-05-28T03:47:57.677Z,16.65
2019-05-28T03:50:27.330Z,13.45
2019-05-28T03:52:56.883Z,10.08
2019-05-28T03:55:26.269Z,11.15
2019-05-28T03:57:55.633Z,11.22
2019-05-28T04:00:26.434Z,11.43
2019-05-28T04:02:55.741Z,9.38
2019-05-28T04:05:25.211Z,9.63
2019-05-28T04:07:54.529Z,10.40
2019-05-28T04:10:23.846Z,11.05
2019-05-28T04:12:53.161Z,10.35
2019-05-28T04:15:22.474Z,11.05
2019-05-28T04:17:51.964Z,11.20
2019-05-28T04:20:21.277Z,11.48
2019-05-28T04:22:51.781Z,11.83
2019-05-28T04:25:22.545Z,13.38
2019-05-28T04:27:51.856Z,12.90
2019-05-28T04:30:21.172Z,12.55
2019-05-28T04:32:50.485Z,12.37
2019-05-28T04:35:19.784Z,12.05
2019-05-28T04:37:49.095Z,12.05
2019-05-28T04:40:18.482Z,12.63
2019-05-28T04:42:47.789Z,13.13
2019-05-28T04:45:17.156Z,13.28
2019-05-28T04:47:46.453Z,13.75
2019-05-28T04:50:15.829Z,14.90
2019-05-28T04:52:45.134Z,14.83
2019-05-28T04:55:14.769Z,16.07
2019-05-28T04:57:44.076Z,14.80
2019-05-28T05:00:14.024Z,15.38
2019-05-28T05:02:57.711Z,14.90
2019-05-28T05:05:14.677Z,15.23
2019-05-28T05:07:43.988Z,15.65
2019-05-28T05:10:14.356Z,15.38
2019-05-28T05:12:43.868Z,14.93
2019-05-28T05:15:13.381Z,11.28
2019-05-28T05:17:42.694Z,13.10
2019-05-28T05:20:14.735Z,11.22
2019-05-28T05:22:47.182Z,11.50
2019-05-28T05:25:18.129Z,12.98
2019-05-28T05:27:47.670Z,12.60
2019-05-28T05:30:17.019Z,14.05
2019-05-28T05:32:46.325Z,13.68
2019-05-28T05:35:16.246Z,15.18
2019-05-28T05:37:45.552Z,15.48
2019-05-28T05:40:15.579Z,17.00
2019-05-28T05:42:45.088Z,17.55
2019-05-28T05:45:14.449Z,16.07
2019-05-28T05:47:46.109Z,15.78
2019-05-28T05:50:16.472Z,15.78
2019-05-28T05:52:46.423Z,14.18
2019-05-28T05:55:15.876Z,14.80
2019-05-28T05:57:46.267Z,14.55
2019-05-28T06:00:17.677Z,16.23
2019-05-28T06:02:46.989Z,15.28
2019-05-28T06:05:16.716Z,13.93
2019-05-28T06:07:46.041Z,11.40
2019-05-28T06:10:16.566Z,8.65
2019-05-28T06:12:45.880Z,8.25
2019-05-28T06:15:15.240Z,9.40
2019-05-28T06:17:44.530Z,9.40
2019-05-28T06:20:14.437Z,8.65
2019-05-28T06:22:43.909Z,8.25
2019-05-28T06:25:13.427Z,7.35
2019-05-28T06:27:44.359Z,7.85
2019-05-28T06:30:13.979Z,7.90
2019-05-28T06:32:43.344Z,8.50
2019-05-28T06:35:12.954Z,8.33
2019-05-28T06:37:42.308Z,7.22
2019-05-28T06:40:11.778Z,6.92
2019-05-28T06:42:41.054Z,8.13
2019-05-28T06:45:10.569Z,8.53
2019-05-28T06:47:44.833Z,7.78
2019-05-28T06:50:12.630Z,8.80
2019-05-28T06:52:42.085Z,8.50
2019-05-28T06:55:11.604Z,7.67
2019-05-28T06:57:42.002Z,8.28
2019-05-28T07:00:11.834Z,8.28
2019-05-28T07:02:41.116Z,8.48
2019-05-28T07:05:10.485Z,7.62
2019-05-28T07:07:39.786Z,8.83
2019-05-28T07:10:09.318Z,8.28
2019-05-28T07:12:38.677Z,8.10
2019-05-28T07:15:08.935Z,6.75
2019-05-28T07:17:38.246Z,7.97
2019-05-28T07:20:08.391Z,7.80
2019-05-28T07:22:37.704Z,8.80
2019-05-28T07:25:08.067Z,7.80
2019-05-28T07:27:40.066Z,5.85
2019-05-28T07:30:09.798Z,4.33
2019-05-28T07:32:39.112Z,4.67
2019-05-28T07:35:08.460Z,5.70
2019-05-28T07:37:37.793Z,5.30
2019-05-28T07:40:07.371Z,4.15
2019-05-28T07:42:36.675Z,3.30
2019-05-28T07:45:07.166Z,3.00
2019-05-28T07:47:37.553Z,2.77
2019-05-28T07:50:07.265Z,2.60
2019-05-28T07:52:36.601Z,2.40
2019-05-28T07:55:06.239Z,2.05
2019-05-28T07:57:35.656Z,1.87
2019-05-28T08:00:07.007Z,2.10
2019-05-28T08:02:36.360Z,2.10
2019-05-28T08:05:07.183Z,2.40
2019-05-28T08:07:36.693Z,2.12
2019-05-28T08:10:08.406Z,2.08
2019-05-28T08:12:37.740Z,1.87
2019-05-28T08:15:08.764Z,2.35
2019-05-28T08:17:38.074Z,2.30
2019-05-28T08:20:07.883Z,2.95
2019-05-28T08:22:42.704Z,3.35
2019-05-28T08:25:23.547Z,4.03
2019-05-28T08:27:39.462Z,4.70
2019-05-28T08:30:09.129Z,5.15
2019-05-28T08:32:38.432Z,5.45
2019-05-28T08:35:08.351Z,4.95
2019-05-28T08:37:37.730Z,6.03
2019-05-28T08:40:08.210Z,6.85
2019-05-28T08:42:37.756Z,6.87
2019-05-28T08:45:08.451Z,5.05
2019-05-28T08:47:37.804Z,4.92
2019-05-28T08:50:08.078Z,5.42
2019-05-28T08:52:37.384Z,5.10
2019-05-28T08:55:07.177Z,4.65
2019-05-28T08:57:36.700Z,2.10
2019-05-28T09:00:10.488Z,2.60
2019-05-28T09:02:39.779Z,2.60
2019-05-28T09:05:25.033Z,3.25
2019-05-28T09:07:40.343Z,2.80
2019-05-28T09:10:10.499Z,2.22
2019-05-28T09:12:39.787Z,2.77
2019-05-28T09:15:09.232Z,3.20
2019-05-28T09:17:40.493Z,3.30
2019-05-28T09:20:10.148Z,3.60
2019-05-28T09:22:39.452Z,4.53
2019-05-28T09:25:09.012Z,4.90
2019-05-28T09:27:38.295Z,5.28
2019-05-28T09:30:09.572Z,6.10
2019-05-28T09:32:38.981Z,6.35
2019-05-28T09:35:09.746Z,6.87
2019-05-28T09:37:40.010Z,6.12
2019-05-28T09:40:09.933Z,5.72
2019-05-28T09:42:39.278Z,6.45
2019-05-28T09:45:21.904Z,6.10
2019-05-28T09:47:40.717Z,6.17
2019-05-28T09:50:29.370Z,6.40
2019-05-28T09:52:54.487Z,6.58
2019-05-28T09:55:15.450Z,6.37
2019-05-28T09:57:47.820Z,6.28
2019-05-28T10:00:21.437Z,5.53
2019-05-28T10:02:51.995Z,5.10
2019-05-28T10:05:21.993Z,6.03
2019-05-28T10:07:51.285Z,6.20
2019-05-28T10:10:20.762Z,5.83
2019-05-28T10:12:50.309Z,3.98
2019-05-28T10:15:20.332Z,4.40
2019-05-28T10:17:49.672Z,3.50
2019-05-28T10:20:19.650Z,3.05
2019-05-28T10:22:49.092Z,2.52
2019-05-28T10:25:18.664Z,2.30
2019-05-28T10:28:00.469Z,2.52
2019-05-28T10:30:19.939Z,2.85
2019-05-28T10:32:49.227Z,3.30
2019-05-28T10:35:18.848Z,2.90
2019-05-28T10:37:48.271Z,2.70
2019-05-28T10:40:18.110Z,3.20
2019-05-28T10:42:47.441Z,3.72
2019-05-28T10:45:17.551Z,3.75
2019-05-28T10:47:46.876Z,4.00
2019-05-28T10:50:17.487Z,4.40
2019-05-28T10:52:46.926Z,4.20
2019-05-28T10:55:16.539Z,4.78
2019-05-28T10:57:45.819Z,4.90
2019-05-28T11:00:15.746Z,5.00
2019-05-28T11:02:45.054Z,5.17
2019-05-28T11:05:15.081Z,4.83
2019-05-28T11:07:44.358Z,5.15
2019-05-28T11:10:23.659Z,4.00
2019-05-28T11:12:45.490Z,3.50
2019-05-28T11:15:16.326Z,3.65
2019-05-28T11:17:45.623Z,3.45
2019-05-28T11:20:15.901Z,3.40
2019-05-28T11:22:45.182Z,4.47
2019-05-28T11:25:15.918Z,3.60
2019-05-28T11:27:45.245Z,3.90
2019-05-28T11:30:15.705Z,3.90
2019-05-28T11:32:46.738Z,3.60
2019-05-28T11:35:17.457Z,3.17
2019-05-28T11:37:47.658Z,2.87
2019-05-28T11:40:17.601Z,3.80
2019-05-28T11:42:46.911Z,3.80
2019-05-28T11:45:18.719Z,3.70
2019-05-28T11:47:50.868Z,4.33
2019-05-28T11:50:19.399Z,4.00
2019-05-28T11:52:49.444Z,4.33
2019-05-28T11:55:19.077Z,4.30
2019-05-28T11:57:48.376Z,4.53
2019-05-28T12:00:18.089Z,4.37
2019-05-28T12:02:47.400Z,4.45
2019-05-28T12:05:17.147Z,4.42
2019-05-28T12:07:46.432Z,4.45
2019-05-28T12:10:16.281Z,4.53
2019-05-28T12:12:45.564Z,4.12
2019-05-28T12:15:16.780Z,4.35
2019-05-28T12:17:46.359Z,4.00
2019-05-28T12:20:19.675Z,3.20
2019-05-28T12:23:08.851Z,3.30
2019-05-28T12:25:21.929Z,3.90
2019-05-28T12:27:51.223Z,3.77
2019-05-28T12:30:21.083Z,3.25
2019-05-28T12:32:50.443Z,3.05
2019-05-28T12:35:28.129Z,3.45
2019-05-28T12:37:51.585Z,3.33
2019-05-28T12:40:21.442Z,3.62
2019-05-28T12:42:50.811Z,3.40
2019-05-28T12:45:34.383Z,3.58
2019-05-28T12:48:07.484Z,3.40
2019-05-28T12:50:24.346Z,3.62
2019-05-28T12:52:53.639Z,3.27
2019-05-28T12:55:23.344Z,3.70
2019-05-28T12:57:52.676Z,3.60
2019-05-28T13:00:22.590Z,3.90
2019-05-28T13:02:51.862Z,3.20
2019-05-28T13:05:24.102Z,2.90
2019-05-28T13:08:07.652Z,2.60
2019-05-28T13:10:24.962Z,3.00
2019-05-28T13:12:54.278Z,2.65
2019-05-28T13:15:23.747Z,2.87
2019-05-28T13:17:53.241Z,2.65
2019-05-28T13:20:23.500Z,2.72
2019-05-28T13:22:52.996Z,3.22
2019-05-28T13:25:22.308Z,2.98
2019-05-28T13:27:51.571Z,3.20
2019-05-28T13:30:21.046Z,3.05
2019-05-28T13:32:50.565Z,3.35
2019-05-28T13:35:20.559Z,3.52
2019-05-28T13:37:50.976Z,3.60
2019-05-28T13:40:20.750Z,3.10
2019-05-28T13:42:51.856Z,3.50
2019-05-28T13:45:21.544Z,2.98
2019-05-28T13:47:50.887Z,2.98
2019-05-28T13:50:22.001Z,2.80
2019-05-28T13:52:51.454Z,3.20
2019-05-28T13:55:20.948Z,2.83
2019-05-28T13:57:50.256Z,2.80
2019-05-28T14:00:20.668Z,2.55
2019-05-28T14:02:49.961Z,3.15
2019-05-28T14:05:19.574Z,2.85
2019-05-28T14:07:48.877Z,3.10
2019-05-28T14:10:18.327Z,3.10
2019-05-28T14:12:47.693Z,3.15
2019-05-28T14:15:18.823Z,3.55
2019-05-28T14:17:48.149Z,3.12
2019-05-28T14:20:18.249Z,3.20
2019-05-28T14:22:47.487Z,3.10
2019-05-28T14:25:18.317Z,2.08
2019-05-28T14:27:47.625Z,2.70
2019-05-28T14:30:19.089Z,3.02
2019-05-28T14:32:48.568Z,2.85
2019-05-28T14:35:18.499Z,3.33
2019-05-28T14:37:48.518Z,3.27
2019-05-28T14:40:17.985Z,2.95
2019-05-28T14:42:47.279Z,3.60
2019-05-28T14:45:16.863Z,3.90
2019-05-28T14:47:46.222Z,4.03
2019-05-28T14:50:16.123Z,4.15
2019-05-28T14:52:45.431Z,4.22
2019-05-28T14:55:15.082Z,4.20
2019-05-28T14:57:44.443Z,4.10
2019-05-28T15:00:17.036Z,4.53
2019-05-28T15:02:47.930Z,4.60
2019-05-28T15:05:18.458Z,4.35
2019-05-28T15:07:47.789Z,4.80
2019-05-28T15:10:18.731Z,4.62
2019-05-28T15:12:48.128Z,4.70
2019-05-28T15:15:34.563Z,5.62
2019-05-28T15:17:48.779Z,5.22
2019-05-28T15:20:18.619Z,5.30
2019-05-28T15:22:48.166Z,5.08
2019-05-28T15:25:17.652Z,5.10
2019-05-28T15:27:46.964Z,5.08
2019-05-28T15:30:16.487Z,5.15
2019-05-28T15:32:45.765Z,5.40
2019-05-28T15:35:15.380Z,5.30
2019-05-28T15:37:44.651Z,4.62
2019-05-28T15:40:14.411Z,4.83
2019-05-28T15:42:43.686Z,5.15
2019-05-28T15:45:13.713Z,4.95
2019-05-28T15:47:44.933Z,6.05
2019-05-28T15:50:16.394Z,5.72
2019-05-28T15:52:45.685Z,6.03
2019-05-28T15:55:15.235Z,5.85
2019-05-28T15:57:44.517Z,5.67
2019-05-28T16:00:19.688Z,5.90
2019-05-28T16:02:49.120Z,6.00
2019-05-28T16:05:19.929Z,6.22
2019-05-28T16:07:49.302Z,5.80
2019-05-28T16:10:19.191Z,6.33
2019-05-28T16:12:49.436Z,6.35
2019-05-28T16:15:18.810Z,5.90
2019-05-28T16:17:48.114Z,5.78
2019-05-28T16:20:18.234Z,6.05
2019-05-28T16:22:47.577Z,6.42
2019-05-28T16:25:17.194Z,6.50
2019-05-28T16:27:47.357Z,7.00
2019-05-28T16:30:17.380Z,7.20
2019-05-28T16:32:46.692Z,6.97
2019-05-28T16:35:19.274Z,7.83
2019-05-28T16:40:18.777Z,6.85
2019-05-28T16:42:48.038Z,7.17
2019-05-28T16:45:17.706Z,7.47
2019-05-28T16:47:47.009Z,7.40
2019-05-28T16:50:16.612Z,6.67
2019-05-28T16:52:46.348Z,7.08
2019-05-28T16:55:16.697Z,6.60
2019-05-28T16:57:46.040Z,6.40
2019-05-28T17:00:15.839Z,6.08
2019-05-28T17:02:45.368Z,5.90
2019-05-28T17:05:14.718Z,5.53
2019-05-28T17:07:44.181Z,5.50
2019-05-28T17:10:31.608Z,4.95
2019-05-28T17:12:47.011Z,5.40
2019-05-28T17:15:16.639Z,4.92
2019-05-28T17:17:46.778Z,5.20
2019-05-28T17:20:16.445Z,4.40
2019-05-28T17:22:45.872Z,4.37
2019-05-28T17:25:15.919Z,4.62
2019-05-28T17:27:46.071Z,4.17
2019-05-28T17:30:23.303Z,4.53
2019-05-28T17:32:46.752Z,4.90
2019-05-28T17:35:16.078Z,4.78
2019-05-28T17:37:45.347Z,4.03
2019-05-28T17:40:21.637Z,4.30
2019-05-28T17:42:46.107Z,3.98
2019-05-28T17:45:17.252Z,4.17
2019-05-28T17:47:46.557Z,4.08
2019-05-28T17:50:17.813Z,3.90
2019-05-28T17:52:51.036Z,4.22
2019-05-28T17:55:18.209Z,4.00
2019-05-28T17:57:47.544Z,3.72
2019-05-28T18:00:16.983Z,3.33
2019-05-28T18:02:48.452Z,4.00
2019-05-28T18:05:17.513Z,3.35
2019-05-28T18:07:46.818Z,3.45
2019-05-28T18:10:16.331Z,3.05
2019-05-28T18:12:45.776Z,3.02
2019-05-28T18:15:15.406Z,3.08
2019-05-28T18:17:44.671Z,3.15
2019-05-28T18:20:15.121Z,3.45
2019-05-28T18:22:44.680Z,3.17
2019-05-28T18:25:14.142Z,3.30
2019-05-28T18:27:43.422Z,3.02
2019-05-28T18:30:13.062Z,3.20
2019-05-28T18:32:42.348Z,2.80
2019-05-28T18:35:12.512Z,3.12
2019-05-28T18:37:41.889Z,3.00
2019-05-28T18:40:12.282Z,2.90
2019-05-28T18:42:41.644Z,2.90
2019-05-28T18:45:11.251Z,3.00
2019-05-28T18:47:40.840Z,3.00
2019-05-28T18:50:11.198Z,2.83
2019-05-28T18:52:40.544Z,3.10
2019-05-28T18:55:10.126Z,3.10
2019-05-28T18:57:39.403Z,2.77
2019-05-28T19:00:09.845Z,2.87
2019-05-28T19:02:39.908Z,2.90
2019-05-28T19:05:10.931Z,2.87
2019-05-28T19:07:40.447Z,2.70
2019-05-28T19:10:09.813Z,2.90
2019-05-28T19:12:39.077Z,2.80
2019-05-28T19:15:09.041Z,2.75
2019-05-28T19:17:38.492Z,2.60
2019-05-28T19:20:08.466Z,2.30
2019-05-28T19:22:37.723Z,2.37
2019-05-28T19:25:09.071Z,2.27
2019-05-28T19:27:38.406Z,2.10
2019-05-28T19:30:09.671Z,2.10
2019-05-28T19:32:40.001Z,2.08
2019-05-28T19:35:09.540Z,2.30
2019-05-28T19:37:39.129Z,2.05
2019-05-28T19:40:08.611Z,2.45
2019-05-28T19:42:39.159Z,2.20
2019-05-28T19:45:08.892Z,2.05
2019-05-28T19:47:38.372Z,2.10
2019-05-28T19:50:08.434Z,2.00
2019-05-28T19:52:37.889Z,2.10
2019-05-28T19:55:07.611Z,1.95
2019-05-28T19:57:36.922Z,1.80
2019-05-28T20:00:07.525Z,2.00
2019-05-28T20:02:37.718Z,2.00
2019-05-28T20:05:08.499Z,2.08
2019-05-28T20:07:37.818Z,2.40
2019-05-28T20:10:08.147Z,2.72
2019-05-28T20:12:37.432Z,2.20
2019-05-28T20:15:11.566Z,2.10
2019-05-28T20:17:40.930Z,2.12
2019-05-28T20:20:11.095Z,2.17
2019-05-28T20:22:40.416Z,2.00
2019-05-28T20:25:11.277Z,2.10
2019-05-28T20:27:41.006Z,2.25
2019-05-28T20:30:11.525Z,2.20
2019-05-28T20:32:41.770Z,2.35
2019-05-28T20:35:11.768Z,2.40
2019-05-28T20:37:41.174Z,2.30
2019-05-28T20:40:11.056Z,2.40
2019-05-28T20:42:40.613Z,2.67
2019-05-28T20:45:11.886Z,2.60
2019-05-28T20:47:41.382Z,2.70
2019-05-28T20:50:11.748Z,2.67
2019-05-28T20:52:43.221Z,2.60
2019-05-28T20:55:13.037Z,2.80
2019-05-28T20:57:42.501Z,2.50
2019-05-28T21:00:12.205Z,2.60
2019-05-28T21:02:41.562Z,2.62
2019-05-28T21:05:11.100Z,3.00
2019-05-28T21:07:41.369Z,2.60
2019-05-28T21:10:12.158Z,2.70
2019-05-28T21:12:44.570Z,3.00
2019-05-28T21:15:15.872Z,2.75
2019-05-28T21:17:44.260Z,2.77
2019-05-28T21:20:13.595Z,3.08
2019-05-28T21:22:42.890Z,3.02
2019-05-28T21:25:12.241Z,2.87
2019-05-28T21:27:41.596Z,3.35
2019-05-28T21:30:11.180Z,3.20
2019-05-28T21:32:41.396Z,2.92
2019-05-28T21:35:11.097Z,3.10
2019-05-28T21:37:40.390Z,3.02
2019-05-28T21:40:09.892Z,3.10
2019-05-28T21:42:39.163Z,3.50
2019-05-28T21:45:08.785Z,3.30
2019-05-28T21:47:39.747Z,3.70
2019-05-28T21:50:09.659Z,3.45
2019-05-28T21:52:38.953Z,3.70
2019-05-28T21:55:08.756Z,3.50
2019-05-28T21:57:38.105Z,3.55
2019-05-28T22:00:14.504Z,4.00
2019-05-28T22:02:45.679Z,3.95
2019-05-28T22:05:15.091Z,3.90
2019-05-28T22:07:45.935Z,4.10
2019-05-28T22:10:15.350Z,4.15
2019-05-28T22:12:47.243Z,4.55
2019-05-28T22:15:16.677Z,4.97
2019-05-28T22:17:45.977Z,4.60
2019-05-28T22:20:15.586Z,4.50
2019-05-28T22:22:46.475Z,4.67
2019-05-28T22:25:15.778Z,4.85
2019-05-28T22:27:45.072Z,4.65
2019-05-28T22:30:15.809Z,5.08
2019-05-28T22:32:45.261Z,5.67
2019-05-28T22:35:14.568Z,4.83
2019-05-28T22:37:43.872Z,5.58
2019-05-28T22:40:13.500Z,6.17
2019-05-28T22:42:42.867Z,5.92
2019-05-28T22:45:12.179Z,5.58
2019-05-28T22:47:41.521Z,5.17
2019-05-28T22:50:22.105Z,5.62
2019-05-28T22:52:42.170Z,5.05
2019-05-28T22:55:11.462Z,6.00
2019-05-28T22:57:40.742Z,6.28
2019-05-28T23:00:11.242Z,6.08
2019-05-28T23:02:40.585Z,6.15
2019-05-28T23:05:10.048Z,6.22
2019-05-28T23:07:39.312Z,6.28
2019-05-28T23:10:09.885Z,6.40
2019-05-28T23:12:39.299Z,6.90
2019-05-28T23:15:11.044Z,7.30
2019-05-28T23:17:40.331Z,7.03
2019-05-28T23:20:11.309Z,6.85
2019-05-28T23:22:40.685Z,6.75
2019-05-28T23:25:11.571Z,7.90
2019-05-28T23:27:41.165Z,7.40
2019-05-28T23:30:23.452Z,7.33
2019-05-28T23:32:43.873Z,7.90
2019-05-28T23:35:13.626Z,7.62
2019-05-28T23:37:42.992Z,8.08
2019-05-28T23:40:13.378Z,9.03
2019-05-28T23:42:43.486Z,8.20
2019-05-28T23:45:13.937Z,8.40
2019-05-28T23:47:44.081Z,7.97
2019-05-28T23:50:17.666Z,7.87
2019-05-28T23:52:45.300Z,9.60
2019-05-28T23:55:14.787Z,9.20
2019-05-28T23:57:44.106Z,9.63
